createdAt,value
2019-03-13T00:00:55.771Z,7.60
2019-03-13T00:03:25.025Z,7.60
2019-03-13T00:05:55.087Z,7.50
2019-03-13T00:08:24.420Z,7.60
2019-03-13T00:10:53.753Z,7.60
2019-03-13T00:13:22.968Z,7.50
2019-03-13T00:15:52.138Z,7.50
2019-03-13T00:18:21.289Z,7.60
2019-03-13T00:20:50.538Z,7.50
2019-03-13T00:23:19.699Z,7.50
2019-03-13T00:25:48.898Z,7.50
2019-03-13T00:28:18.106Z,7.40
2019-03-13T00:30:47.361Z,7.40
2019-03-13T00:33:16.575Z,7.40
2019-03-13T00:35:45.779Z,7.40
2019-03-13T00:38:15.008Z,7.40
2019-03-13T00:40:44.182Z,7.40
2019-03-13T00:43:13.274Z,7.40
2019-03-13T00:45:42.537Z,7.40
2019-03-13T00:48:11.696Z,7.40
2019-03-13T00:50:40.854Z,7.40
2019-03-13T00:53:09.959Z,7.40
2019-03-13T00:55:39.323Z,7.40
2019-03-13T00:58:08.529Z,7.30
2019-03-13T01:00:59.740Z,7.30
2019-03-13T01:03:39.171Z,7.30
2019-03-13T01:06:11.603Z,7.40
2019-03-13T01:08:40.838Z,7.40
2019-03-13T01:11:10.290Z,7.40
2019-03-13T01:13:39.600Z,7.40
2019-03-13T01:16:08.846Z,7.40
2019-03-13T01:18:37.931Z,7.40
2019-03-13T01:21:07.311Z,7.40
2019-03-13T01:23:36.744Z,7.40
2019-03-13T01:26:05.986Z,7.50
2019-03-13T01:28:35.229Z,7.50
2019-03-13T01:31:35.503Z,7.40
2019-03-13T01:34:21.956Z,7.50
2019-03-13T01:36:51.057Z,7.50
2019-03-13T01:39:20.308Z,7.50
2019-03-13T01:41:49.430Z,7.60
2019-03-13T01:44:18.703Z,7.60
2019-03-13T01:46:47.793Z,7.60
2019-03-13T01:49:17.120Z,7.60
2019-03-13T01:51:46.179Z,7.60
2019-03-13T01:54:15.490Z,7.60
2019-03-13T01:56:44.671Z,7.60
2019-03-13T01:59:13.850Z,7.60
2019-03-13T02:01:42.953Z,7.70
2019-03-13T02:04:12.216Z,7.70
2019-03-13T02:06:41.365Z,7.70
2019-03-13T02:09:10.475Z,7.70
2019-03-13T02:11:39.738Z,7.70
2019-03-13T02:14:08.920Z,7.70
2019-03-13T02:16:38.132Z,7.70
2019-03-13T02:19:07.207Z,7.70
2019-03-13T02:21:36.546Z,7.80
2019-03-13T02:24:05.915Z,7.80
2019-03-13T02:26:35.027Z,7.80
2019-03-13T02:29:04.136Z,7.80
2019-03-13T02:31:33.584Z,7.80
2019-03-13T02:34:02.999Z,7.80
2019-03-13T02:36:32.075Z,7.80
2019-03-13T02:39:01.475Z,7.90
2019-03-13T02:41:30.674Z,7.90
2019-03-13T02:43:59.853Z,7.80
2019-03-13T02:46:28.872Z,7.80
2019-03-13T02:48:57.993Z,7.80
2019-03-13T02:51:27.118Z,7.80
2019-03-13T02:53:56.596Z,7.80
2019-03-13T02:56:25.864Z,7.80
2019-03-13T02:58:55.143Z,7.80
2019-03-13T03:01:41.703Z,7.80
2019-03-13T03:04:11.933Z,7.80
2019-03-13T03:06:41.354Z,7.80
2019-03-13T03:09:10.467Z,7.80
2019-03-13T03:11:39.758Z,7.80
2019-03-13T03:14:08.838Z,7.80
2019-03-13T03:16:38.180Z,7.80
2019-03-13T03:19:07.349Z,7.90
2019-03-13T03:21:36.579Z,7.90
2019-03-13T03:24:05.768Z,7.90
2019-03-13T03:26:34.918Z,7.80
2019-03-13T03:29:04.020Z,7.90
2019-03-13T03:31:33.348Z,7.90
2019-03-13T03:34:04.005Z,8.00
2019-03-13T03:36:33.126Z,8.00
2019-03-13T03:39:02.544Z,8.00
2019-03-13T03:41:31.747Z,8.00
2019-03-13T03:44:00.859Z,8.00
2019-03-13T03:46:30.295Z,8.00
2019-03-13T03:48:59.384Z,8.10
2019-03-13T03:51:28.621Z,8.00
2019-03-13T03:53:57.732Z,8.10
2019-03-13T03:56:27.069Z,8.10
2019-03-13T03:58:56.261Z,8.10
2019-03-13T04:01:25.402Z,8.10
2019-03-13T04:03:54.476Z,8.10
2019-03-13T04:06:23.852Z,8.10
2019-03-13T04:08:52.962Z,8.10
2019-03-13T04:11:22.193Z,8.20
2019-03-13T04:13:51.314Z,8.10
2019-03-13T04:16:20.591Z,8.10
2019-03-13T04:18:49.830Z,8.20
2019-03-13T04:21:19.219Z,8.10
2019-03-13T04:23:48.662Z,8.10
2019-03-13T04:26:17.915Z,8.10
2019-03-13T04:28:47.312Z,8.10
2019-03-13T04:31:16.676Z,8.10
2019-03-13T04:33:45.785Z,8.10
2019-03-13T04:36:14.947Z,8.10
2019-03-13T04:38:44.048Z,8.10
2019-03-13T04:41:13.139Z,8.00
2019-03-13T04:43:42.411Z,8.00
2019-03-13T04:46:11.536Z,8.00
2019-03-13T04:48:40.837Z,8.10
2019-03-13T04:51:09.959Z,8.10
2019-03-13T04:53:39.127Z,8.10
2019-03-13T04:56:08.366Z,8.10
2019-03-13T04:58:37.555Z,8.10
2019-03-13T05:01:06.867Z,8.10
2019-03-13T05:03:36.093Z,8.20
2019-03-13T05:06:11.738Z,8.10
2019-03-13T05:09:08.484Z,8.10
2019-03-13T05:11:37.723Z,8.20
2019-03-13T05:14:06.902Z,8.20
2019-03-13T05:16:36.055Z,8.20
2019-03-13T05:19:05.384Z,8.20
2019-03-13T05:21:34.659Z,8.20
2019-03-13T05:24:03.732Z,8.20
2019-03-13T05:26:32.951Z,8.20
2019-03-13T05:29:02.233Z,8.20
2019-03-13T05:31:31.375Z,8.20
2019-03-13T05:34:00.485Z,8.20
2019-03-13T05:36:29.636Z,8.30
2019-03-13T05:38:58.912Z,8.20
2019-03-13T05:41:28.140Z,8.30
2019-03-13T05:43:57.244Z,8.30
2019-03-13T05:46:26.440Z,8.40
2019-03-13T05:48:55.579Z,8.30
2019-03-13T05:51:24.735Z,8.30
2019-03-13T05:53:53.967Z,8.30
2019-03-13T05:56:23.156Z,8.40
2019-03-13T05:58:52.419Z,8.30
2019-03-13T06:01:21.559Z,8.40
2019-03-13T06:03:50.803Z,8.30
2019-03-13T06:06:19.960Z,8.40
2019-03-13T06:08:49.173Z,8.40
2019-03-13T06:11:18.274Z,8.40
2019-03-13T06:13:47.643Z,8.40
2019-03-13T06:16:16.932Z,8.40
2019-03-13T06:18:46.196Z,8.40
2019-03-13T06:21:15.399Z,8.40
2019-03-13T06:23:47.857Z,8.50
2019-03-13T06:26:16.391Z,8.40
2019-03-13T06:28:45.655Z,8.50
2019-03-13T06:31:14.822Z,8.50
2019-03-13T06:33:44.120Z,8.60
2019-03-13T06:36:13.377Z,8.60
2019-03-13T06:38:42.722Z,8.60
2019-03-13T06:41:12.054Z,8.60
2019-03-13T06:43:41.456Z,8.60
2019-03-13T06:46:10.545Z,8.60
2019-03-13T06:48:39.790Z,8.60
2019-03-13T06:51:09.576Z,8.60
2019-03-13T06:53:38.928Z,8.70
2019-03-13T06:56:08.204Z,8.70
2019-03-13T06:58:59.291Z,8.70
2019-03-13T07:01:44.075Z,8.70
2019-03-13T07:04:22.782Z,8.60
2019-03-13T07:07:07.840Z,8.60
2019-03-13T07:09:43.501Z,8.60
2019-03-13T07:12:30.488Z,8.60
2019-03-13T07:15:17.580Z,8.60
2019-03-13T07:18:05.735Z,8.50
2019-03-13T07:20:53.979Z,8.50
2019-03-13T07:23:31.523Z,8.50
2019-03-13T07:26:38.022Z,8.50
2019-03-13T07:29:44.692Z,8.50
2019-03-13T07:32:41.749Z,8.50
2019-03-13T07:35:25.508Z,8.50
2019-03-13T07:38:22.571Z,8.50
2019-03-13T07:41:06.652Z,8.50
2019-03-13T07:44:03.968Z,8.50
2019-03-13T07:47:01.425Z,8.50
2019-03-13T07:49:47.939Z,8.60
2019-03-13T07:52:35.174Z,8.60
2019-03-13T07:55:29.385Z,8.60
2019-03-13T07:58:16.795Z,8.60
2019-03-13T08:01:03.563Z,8.60
2019-03-13T08:03:40.451Z,8.60
2019-03-13T08:06:28.949Z,8.70
2019-03-13T08:09:17.133Z,8.70
2019-03-13T08:12:04.497Z,8.70
2019-03-13T08:15:02.139Z,8.70
2019-03-13T08:17:59.350Z,8.70
2019-03-13T08:20:44.908Z,8.80
2019-03-13T08:23:42.184Z,8.80
2019-03-13T08:26:48.735Z,8.80
2019-03-13T08:29:25.080Z,8.90
2019-03-13T08:32:12.256Z,8.90
2019-03-13T08:35:04.301Z,8.90
2019-03-13T08:37:49.982Z,8.90
2019-03-13T08:40:56.602Z,8.90
2019-03-13T08:43:37.683Z,8.90
2019-03-13T08:46:24.794Z,9.00
2019-03-13T08:49:31.479Z,9.00
2019-03-13T08:52:11.783Z,9.00
2019-03-13T08:54:52.393Z,9.00
2019-03-13T08:57:38.437Z,9.00
2019-03-13T09:00:26.197Z,9.00
2019-03-13T09:03:01.736Z,9.00
2019-03-13T09:05:48.514Z,9.00
2019-03-13T09:08:47.435Z,9.00
2019-03-13T09:11:44.987Z,9.00
2019-03-13T09:14:30.736Z,9.00
2019-03-13T09:17:21.784Z,9.00
2019-03-13T09:20:08.943Z,9.00
2019-03-13T09:22:50.283Z,9.00
2019-03-13T09:25:37.158Z,9.00
2019-03-13T09:28:15.784Z,9.00
2019-03-13T09:31:03.516Z,9.00
2019-03-13T09:33:57.800Z,9.00
2019-03-13T09:36:36.731Z,9.00
2019-03-13T09:39:28.727Z,9.00
2019-03-13T09:42:13.069Z,9.00
2019-03-13T09:44:59.379Z,9.00
2019-03-13T09:47:40.125Z,8.90
2019-03-13T09:50:31.255Z,8.90
2019-03-13T09:53:25.662Z,8.90
2019-03-13T09:56:21.556Z,8.90
2019-03-13T09:59:09.815Z,8.80
2019-03-13T10:02:10.078Z,8.80
2019-03-13T10:05:01.317Z,8.80
2019-03-13T10:07:58.907Z,8.80
2019-03-13T10:10:43.334Z,8.80
2019-03-13T10:13:37.702Z,8.80
2019-03-13T10:16:41.083Z,8.80
2019-03-13T10:19:35.442Z,8.80
2019-03-13T10:22:18.741Z,8.80
2019-03-13T10:25:07.172Z,8.80
2019-03-13T10:27:55.434Z,8.80
2019-03-13T10:30:46.031Z,8.80
2019-03-13T10:33:24.829Z,8.80
2019-03-13T10:36:11.780Z,8.80
2019-03-13T10:39:08.800Z,8.80
2019-03-13T10:41:47.081Z,8.80
2019-03-13T10:44:44.390Z,8.80
2019-03-13T10:47:28.125Z,8.80
2019-03-13T10:50:06.332Z,8.80
2019-03-13T10:52:57.737Z,8.80
2019-03-13T10:55:44.366Z,8.90
2019-03-13T10:58:31.582Z,8.80
2019-03-13T11:01:12.288Z,8.90
2019-03-13T11:03:50.329Z,8.90
2019-03-13T11:06:56.615Z,8.90
2019-03-13T11:09:46.633Z,8.90
2019-03-13T11:12:23.871Z,9.00
2019-03-13T11:15:04.467Z,9.00
2019-03-13T11:18:01.755Z,9.00
2019-03-13T11:21:05.220Z,9.00
2019-03-13T11:24:11.507Z,9.20
2019-03-13T11:26:58.045Z,9.20
2019-03-13T11:29:44.919Z,9.20
2019-03-13T11:32:20.023Z,9.20
2019-03-13T11:35:14.443Z,9.20
2019-03-13T11:38:05.454Z,9.30
2019-03-13T11:41:09.088Z,9.30
2019-03-13T11:43:45.263Z,9.30
2019-03-13T11:46:32.407Z,9.30
2019-03-13T11:49:15.516Z,9.30
2019-03-13T11:51:59.176Z,9.30
2019-03-13T11:54:47.808Z,9.40
2019-03-13T11:57:45.050Z,9.30
2019-03-13T12:00:52.384Z,9.30
2019-03-13T12:03:48.179Z,9.30
2019-03-13T12:06:27.512Z,9.40
2019-03-13T12:09:11.483Z,9.40
2019-03-13T12:12:05.586Z,9.50
2019-03-13T12:14:59.564Z,9.50
2019-03-13T12:18:00.035Z,9.50
2019-03-13T12:20:40.776Z,9.40
2019-03-13T12:23:20.460Z,9.50
2019-03-13T12:26:11.473Z,9.60
2019-03-13T12:29:05.967Z,9.60
2019-03-13T12:31:44.899Z,9.60
2019-03-13T12:34:35.988Z,9.70
2019-03-13T12:37:29.367Z,9.70
2019-03-13T12:40:12.272Z,9.80
2019-03-13T12:43:03.505Z,9.90
2019-03-13T12:45:49.811Z,9.90
2019-03-13T12:48:29.785Z,10.10
2019-03-13T12:51:04.692Z,10.10
2019-03-13T12:54:11.297Z,10.10
2019-03-13T12:57:05.421Z,10.10
2019-03-13T13:00:11.596Z,10.20
2019-03-13T13:02:59.775Z,10.10
2019-03-13T13:05:46.428Z,10.10
2019-03-13T13:08:49.840Z,10.10
2019-03-13T13:11:35.821Z,10.10
2019-03-13T13:14:27.113Z,10.20
2019-03-13T13:17:16.419Z,10.30
2019-03-13T13:19:45.612Z,10.30
2019-03-13T13:22:14.841Z,10.40
2019-03-13T13:24:44.055Z,10.40
2019-03-13T13:27:13.177Z,10.50
2019-03-13T13:29:42.360Z,10.50
2019-03-13T13:32:11.487Z,10.40
2019-03-13T13:34:40.967Z,10.30
2019-03-13T13:37:10.111Z,10.20
2019-03-13T13:39:40.419Z,10.00
2019-03-13T13:42:10.033Z,9.90
2019-03-13T13:44:46.082Z,9.90
2019-03-13T13:47:15.190Z,9.90
2019-03-13T13:49:44.381Z,9.90
2019-03-13T13:52:14.329Z,10.00
2019-03-13T13:54:43.571Z,10.00
2019-03-13T13:57:12.703Z,10.00
2019-03-13T13:59:41.828Z,10.10
2019-03-13T14:02:10.979Z,10.20
2019-03-13T14:04:40.179Z,10.30
2019-03-13T14:07:09.405Z,10.40
2019-03-13T14:09:38.588Z,10.40
2019-03-13T14:12:08.169Z,10.30
2019-03-13T14:14:37.415Z,10.30
2019-03-13T14:17:06.540Z,10.30
2019-03-13T14:19:35.669Z,10.30
2019-03-13T14:22:04.873Z,10.20
2019-03-13T14:24:33.995Z,10.30
2019-03-13T14:27:14.418Z,10.30
2019-03-13T14:29:42.179Z,10.30
2019-03-13T14:32:11.348Z,10.40
2019-03-13T14:34:40.518Z,10.50
2019-03-13T14:37:09.808Z,10.50
2019-03-13T14:39:39.081Z,10.50
2019-03-13T14:42:08.243Z,10.50
2019-03-13T14:44:37.529Z,10.50
2019-03-13T14:47:25.638Z,10.50
2019-03-13T14:50:01.799Z,10.50
2019-03-13T14:52:31.192Z,10.50
2019-03-13T14:55:00.348Z,10.40
2019-03-13T14:57:29.572Z,10.50
2019-03-13T14:59:58.707Z,10.50
2019-03-13T15:02:27.819Z,10.50
2019-03-13T15:04:56.895Z,10.50
2019-03-13T15:07:26.118Z,10.60
2019-03-13T15:09:55.236Z,10.60
2019-03-13T15:12:24.420Z,10.60
2019-03-13T15:14:53.548Z,10.50
2019-03-13T15:17:22.844Z,10.50
2019-03-13T15:19:51.957Z,10.60
2019-03-13T15:22:21.069Z,10.60
2019-03-13T15:24:50.190Z,10.60
2019-03-13T15:27:19.504Z,10.60
2019-03-13T15:29:48.903Z,10.60
2019-03-13T15:32:18.192Z,10.60
2019-03-13T15:34:47.502Z,10.50
2019-03-13T15:37:19.656Z,10.50
2019-03-13T15:39:48.751Z,10.40
2019-03-13T15:42:17.933Z,10.30
2019-03-13T15:44:47.170Z,10.20
2019-03-13T15:47:19.306Z,10.10
2019-03-13T15:49:48.467Z,10.10
2019-03-13T15:52:24.732Z,10.10
2019-03-13T15:54:53.888Z,10.20
2019-03-13T15:57:23.131Z,10.20
2019-03-13T15:59:52.431Z,10.20
2019-03-13T16:02:21.640Z,10.20
2019-03-13T16:04:50.690Z,10.20
2019-03-13T16:07:20.038Z,10.10
2019-03-13T16:09:49.198Z,10.10
2019-03-13T16:12:18.556Z,10.10
2019-03-13T16:14:47.763Z,10.10
2019-03-13T16:17:16.927Z,10.10
2019-03-13T16:19:46.161Z,10.00
2019-03-13T16:22:16.686Z,10.00
2019-03-13T16:24:45.788Z,10.00
2019-03-13T16:27:14.928Z,10.00
2019-03-13T16:29:44.050Z,9.90
2019-03-13T16:32:14.781Z,9.90
2019-03-13T16:34:44.290Z,9.90
2019-03-13T16:37:13.481Z,9.90
2019-03-13T16:39:42.552Z,9.80
2019-03-13T16:42:11.766Z,9.80
2019-03-13T16:44:40.850Z,9.80
2019-03-13T16:47:10.118Z,9.80
2019-03-13T16:49:39.385Z,9.70
2019-03-13T16:52:08.696Z,9.70
2019-03-13T16:54:41.044Z,9.70
2019-03-13T16:57:10.234Z,9.60
2019-03-13T16:59:39.749Z,9.60
2019-03-13T17:02:08.948Z,9.60
2019-03-13T17:04:40.126Z,9.60
2019-03-13T17:07:09.462Z,9.50
2019-03-13T17:09:38.569Z,9.50
2019-03-13T17:12:07.877Z,9.60
2019-03-13T17:14:37.070Z,9.50
2019-03-13T17:17:06.326Z,9.50
2019-03-13T17:19:35.707Z,9.40
2019-03-13T17:22:04.947Z,9.40
2019-03-13T17:24:34.227Z,9.30
2019-03-13T17:27:03.364Z,9.30
2019-03-13T17:29:32.591Z,9.30
2019-03-13T17:32:01.739Z,9.30
2019-03-13T17:34:30.954Z,9.30
2019-03-13T17:37:00.359Z,9.30
2019-03-13T17:39:29.460Z,9.30
2019-03-13T17:41:58.943Z,9.30
2019-03-13T17:44:28.363Z,9.20
2019-03-13T17:46:57.459Z,9.20
2019-03-13T17:49:26.572Z,9.30
2019-03-13T17:51:55.779Z,9.30
2019-03-13T17:54:24.944Z,9.30
2019-03-13T17:56:54.071Z,9.30
2019-03-13T17:59:23.427Z,9.30
2019-03-13T18:01:52.629Z,9.20
2019-03-13T18:04:21.943Z,9.30
2019-03-13T18:06:51.444Z,9.20
2019-03-13T18:09:20.711Z,9.30
2019-03-13T18:11:50.015Z,9.30
2019-03-13T18:14:19.405Z,9.20
2019-03-13T18:16:48.472Z,9.30
2019-03-13T18:19:17.495Z,9.20
2019-03-13T18:21:46.669Z,9.20
2019-03-13T18:24:15.784Z,9.20
2019-03-13T18:26:45.128Z,9.20
2019-03-13T18:29:14.336Z,9.20
2019-03-13T18:31:43.419Z,9.10
2019-03-13T18:34:12.524Z,9.10
2019-03-13T18:36:51.415Z,9.00
2019-03-13T18:39:20.652Z,9.00
2019-03-13T18:41:49.995Z,8.90
2019-03-13T18:44:19.224Z,8.90
2019-03-13T18:46:48.491Z,8.90
2019-03-13T18:49:17.687Z,8.80
2019-03-13T18:51:46.875Z,8.80
2019-03-13T18:54:16.041Z,8.80
2019-03-13T18:56:45.530Z,8.80
2019-03-13T18:59:14.845Z,8.90
2019-03-13T19:01:44.012Z,8.90
2019-03-13T19:04:13.347Z,8.80
2019-03-13T19:06:42.607Z,8.90
2019-03-13T19:09:11.772Z,8.90
2019-03-13T19:11:43.175Z,8.90
2019-03-13T19:14:12.328Z,8.90
2019-03-13T19:16:41.680Z,8.80
2019-03-13T19:19:10.902Z,8.90
2019-03-13T19:21:40.105Z,8.90
2019-03-13T19:24:09.257Z,8.90
2019-03-13T19:26:38.491Z,8.90
2019-03-13T19:29:07.560Z,8.90
2019-03-13T19:31:36.783Z,8.90
2019-03-13T19:34:05.932Z,8.80
2019-03-13T19:36:35.896Z,8.80
2019-03-13T19:39:08.026Z,8.80
2019-03-13T19:41:37.206Z,8.80
2019-03-13T19:44:06.349Z,8.80
2019-03-13T19:46:35.442Z,8.80
2019-03-13T19:49:04.729Z,8.90
2019-03-13T19:51:34.101Z,8.80
2019-03-13T19:54:03.392Z,8.80
2019-03-13T19:56:35.027Z,8.80
2019-03-13T19:59:03.594Z,8.80
2019-03-13T20:01:33.097Z,8.80
2019-03-13T20:04:02.290Z,8.80
2019-03-13T20:06:41.644Z,8.80
2019-03-13T20:09:02.763Z,8.90
2019-03-13T20:11:31.964Z,8.90
2019-03-13T20:14:01.151Z,8.90
2019-03-13T20:16:30.335Z,8.90
2019-03-13T20:18:59.513Z,9.00
2019-03-13T20:21:31.043Z,9.00
2019-03-13T20:23:59.492Z,9.00
2019-03-13T20:26:28.763Z,8.90
2019-03-13T20:28:58.122Z,9.00
2019-03-13T20:31:27.424Z,9.00
2019-03-13T20:33:56.636Z,9.00
2019-03-13T20:36:25.709Z,9.00
2019-03-13T20:38:54.949Z,9.10
2019-03-13T20:41:24.248Z,9.10
2019-03-13T20:43:53.567Z,9.00
2019-03-13T20:46:22.930Z,9.00
2019-03-13T20:48:54.451Z,9.00
2019-03-13T20:51:23.492Z,9.00
2019-03-13T20:53:52.591Z,9.10
2019-03-13T20:56:21.832Z,9.10
2019-03-13T20:58:51.346Z,9.00
2019-03-13T21:01:20.520Z,9.00
2019-03-13T21:03:51.489Z,9.00
2019-03-13T21:06:20.934Z,9.00
2019-03-13T21:08:50.082Z,9.00
2019-03-13T21:11:19.282Z,9.00
2019-03-13T21:13:48.790Z,9.00
2019-03-13T21:16:17.969Z,9.00
2019-03-13T21:18:47.092Z,9.00
2019-03-13T21:21:16.353Z,9.00
2019-03-13T21:23:46.739Z,9.00
2019-03-13T21:26:15.983Z,9.00
2019-03-13T21:28:45.503Z,8.90
2019-03-13T21:31:14.674Z,8.90
2019-03-13T21:33:43.863Z,8.90
2019-03-13T21:36:12.881Z,8.90
2019-03-13T21:38:42.096Z,8.90
2019-03-13T21:41:11.435Z,8.90
2019-03-13T21:43:40.630Z,8.90
2019-03-13T21:46:09.894Z,8.90
2019-03-13T21:48:39.280Z,9.00
2019-03-13T21:51:08.386Z,8.90
2019-03-13T21:53:37.755Z,8.90
2019-03-13T21:56:06.987Z,8.90
2019-03-13T21:58:36.096Z,8.90
2019-03-13T22:01:05.449Z,8.90
2019-03-13T22:03:34.711Z,8.90
2019-03-13T22:06:04.074Z,8.80
2019-03-13T22:08:33.402Z,8.80
2019-03-13T22:11:02.555Z,8.80
2019-03-13T22:13:31.801Z,8.80
2019-03-13T22:16:01.129Z,8.70
2019-03-13T22:18:31.368Z,8.80
2019-03-13T22:21:00.622Z,8.80
2019-03-13T22:23:30.050Z,8.70
2019-03-13T22:25:59.496Z,8.70
2019-03-13T22:28:31.747Z,8.70
2019-03-13T22:31:02.766Z,8.60
2019-03-13T22:33:34.440Z,8.70
2019-03-13T22:36:03.581Z,8.70
2019-03-13T22:38:32.886Z,8.70
2019-03-13T22:41:02.044Z,8.70
2019-03-13T22:43:31.363Z,8.70
2019-03-13T22:46:00.543Z,8.70
2019-03-13T22:48:29.655Z,8.60
2019-03-13T22:51:01.981Z,8.60
2019-03-13T22:53:31.808Z,8.60
2019-03-13T22:56:07.632Z,8.60
2019-03-13T22:58:37.048Z,8.60
2019-03-13T23:01:10.589Z,8.60
2019-03-13T23:03:40.762Z,8.60
2019-03-13T23:06:10.217Z,8.60
2019-03-13T23:08:39.671Z,8.60
2019-03-13T23:11:08.854Z,8.50
2019-03-13T23:13:38.179Z,8.60
2019-03-13T23:16:07.387Z,8.60
2019-03-13T23:18:36.628Z,8.60
2019-03-13T23:21:07.639Z,8.50
2019-03-13T23:23:36.851Z,8.60
2019-03-13T23:26:06.227Z,8.60
2019-03-13T23:28:35.556Z,8.60
2019-03-13T23:31:04.803Z,8.60
2019-03-13T23:33:34.092Z,8.60
2019-03-13T23:36:03.208Z,8.60
2019-03-13T23:38:32.385Z,8.60
2019-03-13T23:41:01.662Z,8.60
2019-03-13T23:43:30.811Z,8.60
2019-03-13T23:46:00.070Z,8.60
2019-03-13T23:48:29.645Z,8.60
2019-03-13T23:50:58.901Z,8.60
2019-03-13T23:53:28.124Z,8.60
2019-03-13T23:55:57.299Z,8.60
2019-03-13T23:58:26.383Z,8.60
